sensor_id;sensor_type;location;lat;lon;timestamp;P1;durP1;ratioP1;P2;durP2;ratioP2
42118;SDS011;27783;42.782;23.274;2024-02-14T00:01:47;9.35;;;8.43;;
42118;SDS011;27783;42.782;23.274;2024-02-14T00:04:13;11.30;;;9.82;;
42118;SDS011;27783;42.782;23.274;2024-02-14T00:06:39;10.70;;;9.10;;
42118;SDS011;27783;42.782;23.274;2024-02-14T00:09:05;9.50;;;8.50;;
42118;SDS011;27783;42.782;23.274;2024-02-14T00:11:31;9.88;;;7.90;;
42118;SDS011;27783;42.782;23.274;2024-02-14T00:13:57;9.55;;;8.38;;
42118;SDS011;27783;42.782;23.274;2024-02-14T00:16:24;10.35;;;9.35;;
42118;SDS011;27783;42.782;23.274;2024-02-14T00:18:49;10.68;;;9.57;;
42118;SDS011;27783;42.782;23.274;2024-02-14T00:21:15;12.38;;;9.48;;
42118;SDS011;27783;42.782;23.274;2024-02-14T00:23:41;11.38;;;10.18;;
42118;SDS011;27783;42.782;23.274;2024-02-14T00:26:07;10.77;;;9.70;;
42118;SDS011;27783;42.782;23.274;2024-02-14T00:28:32;28.27;;;16.27;;
42118;SDS011;27783;42.782;23.274;2024-02-14T00:30:58;18.50;;;13.05;;
42118;SDS011;27783;42.782;23.274;2024-02-14T00:33:23;25.17;;;15.38;;
42118;SDS011;27783;42.782;23.274;2024-02-14T00:35:49;10.82;;;9.48;;
42118;SDS011;27783;42.782;23.274;2024-02-14T00:38:14;9.90;;;8.90;;
42118;SDS011;27783;42.782;23.274;2024-02-14T00:40:39;10.55;;;9.63;;
42118;SDS011;27783;42.782;23.274;2024-02-14T00:43:05;12.07;;;10.82;;
42118;SDS011;27783;42.782;23.274;2024-02-14T00:45:30;12.57;;;10.52;;
42118;SDS011;27783;42.782;23.274;2024-02-14T00:47:55;11.07;;;9.98;;
42118;SDS011;27783;42.782;23.274;2024-02-14T00:50:21;10.90;;;9.80;;
42118;SDS011;27783;42.782;23.274;2024-02-14T00:52:46;14.43;;;10.85;;
42118;SDS011;27783;42.782;23.274;2024-02-14T00:55:12;10.77;;;9.77;;
42118;SDS011;27783;42.782;23.274;2024-02-14T00:57:37;11.30;;;10.02;;
42118;SDS011;27783;42.782;23.274;2024-02-14T01:00:03;10.32;;;9.27;;
42118;SDS011;27783;42.782;23.274;2024-02-14T01:02:31;13.23;;;10.48;;
42118;SDS011;27783;42.782;23.274;2024-02-14T01:04:56;11.50;;;10.30;;
42118;SDS011;27783;42.782;23.274;2024-02-14T01:07:22;11.90;;;10.80;;
42118;SDS011;27783;42.782;23.274;2024-02-14T01:09:47;11.15;;;10.05;;
42118;SDS011;27783;42.782;23.274;2024-02-14T01:12:13;11.65;;;10.02;;
42118;SDS011;27783;42.782;23.274;2024-02-14T01:14:38;11.50;;;10.20;;
42118;SDS011;27783;42.782;23.274;2024-02-14T01:17:03;13.50;;;12.15;;
42118;SDS011;27783;42.782;23.274;2024-02-14T01:19:29;12.73;;;10.93;;
42118;SDS011;27783;42.782;23.274;2024-02-14T01:21:55;12.60;;;11.32;;
42118;SDS011;27783;42.782;23.274;2024-02-14T01:24:22;11.65;;;10.35;;
42118;SDS011;27783;42.782;23.274;2024-02-14T01:26:47;16.48;;;11.25;;
42118;SDS011;27783;42.782;23.274;2024-02-14T01:29:13;13.52;;;12.23;;
42118;SDS011;27783;42.782;23.274;2024-02-14T01:31:38;12.70;;;11.40;;
42118;SDS011;27783;42.782;23.274;2024-02-14T01:34:04;14.60;;;11.75;;
42118;SDS011;27783;42.782;23.274;2024-02-14T01:36:29;12.15;;;10.98;;
42118;SDS011;27783;42.782;23.274;2024-02-14T01:38:55;15.05;;;10.90;;
42118;SDS011;27783;42.782;23.274;2024-02-14T01:41:20;13.07;;;9.90;;
42118;SDS011;27783;42.782;23.274;2024-02-14T01:43:46;12.38;;;10.93;;
42118;SDS011;27783;42.782;23.274;2024-02-14T01:46:12;12.07;;;10.77;;
42118;SDS011;27783;42.782;23.274;2024-02-14T01:48:39;12.98;;;10.65;;
42118;SDS011;27783;42.782;23.274;2024-02-14T01:51:07;12.55;;;10.95;;
42118;SDS011;27783;42.782;23.274;2024-02-14T01:53:36;14.93;;;11.90;;
42118;SDS011;27783;42.782;23.274;2024-02-14T01:56:03;12.57;;;10.75;;
42118;SDS011;27783;42.782;23.274;2024-02-14T01:58:29;15.80;;;11.00;;
42118;SDS011;27783;42.782;23.274;2024-02-14T02:00:55;14.73;;;11.98;;
42118;SDS011;27783;42.782;23.274;2024-02-14T02:03:23;13.55;;;11.98;;
42118;SDS011;27783;42.782;23.274;2024-02-14T02:05:49;14.90;;;12.00;;
42118;SDS011;27783;42.782;23.274;2024-02-14T02:08:15;16.05;;;12.55;;
42118;SDS011;27783;42.782;23.274;2024-02-14T02:10:41;16.75;;;12.05;;
42118;SDS011;27783;42.782;23.274;2024-02-14T02:13:06;16.83;;;11.95;;
42118;SDS011;27783;42.782;23.274;2024-02-14T02:15:34;15.07;;;12.07;;
42118;SDS011;27783;42.782;23.274;2024-02-14T02:17:59;15.15;;;12.88;;
42118;SDS011;27783;42.782;23.274;2024-02-14T02:20:26;15.05;;;13.15;;
42118;SDS011;27783;42.782;23.274;2024-02-14T02:22:52;13.20;;;11.77;;
42118;SDS011;27783;42.782;23.274;2024-02-14T02:25:18;14.45;;;12.50;;
42118;SDS011;27783;42.782;23.274;2024-02-14T02:27:48;14.68;;;12.73;;
42118;SDS011;27783;42.782;23.274;2024-02-14T02:30:14;17.23;;;13.95;;
42118;SDS011;27783;42.782;23.274;2024-02-14T02:32:39;15.43;;;13.82;;
42118;SDS011;27783;42.782;23.274;2024-02-14T02:35:06;15.48;;;13.60;;
42118;SDS011;27783;42.782;23.274;2024-02-14T02:37:32;15.43;;;13.65;;
42118;SDS011;27783;42.782;23.274;2024-02-14T02:39:58;14.35;;;12.15;;
42118;SDS011;27783;42.782;23.274;2024-02-14T02:42:23;15.73;;;13.15;;
42118;SDS011;27783;42.782;23.274;2024-02-14T02:44:50;15.55;;;13.10;;
42118;SDS011;27783;42.782;23.274;2024-02-14T02:47:15;15.18;;;13.55;;
42118;SDS011;27783;42.782;23.274;2024-02-14T02:49:44;14.30;;;12.80;;
42118;SDS011;27783;42.782;23.274;2024-02-14T02:52:10;15.18;;;13.27;;
42118;SDS011;27783;42.782;23.274;2024-02-14T02:54:36;14.43;;;12.93;;
42118;SDS011;27783;42.782;23.274;2024-02-14T02:57:01;13.27;;;11.93;;
42118;SDS011;27783;42.782;23.274;2024-02-14T02:59:28;15.55;;;13.93;;
42118;SDS011;27783;42.782;23.274;2024-02-14T03:01:54;15.38;;;13.90;;
42118;SDS011;27783;42.782;23.274;2024-02-14T03:04:20;15.52;;;13.75;;
42118;SDS011;27783;42.782;23.274;2024-02-14T03:06:46;15.77;;;13.82;;
42118;SDS011;27783;42.782;23.274;2024-02-14T03:09:11;14.90;;;12.93;;
42118;SDS011;27783;42.782;23.274;2024-02-14T03:11:37;16.83;;;14.02;;
42118;SDS011;27783;42.782;23.274;2024-02-14T03:14:03;18.08;;;13.85;;
42118;SDS011;27783;42.782;23.274;2024-02-14T03:16:28;16.10;;;12.68;;
42118;SDS011;27783;42.782;23.274;2024-02-14T03:18:55;17.65;;;14.52;;
42118;SDS011;27783;42.782;23.274;2024-02-14T03:21:20;15.35;;;13.70;;
42118;SDS011;27783;42.782;23.274;2024-02-14T03:23:46;15.50;;;13.63;;
42118;SDS011;27783;42.782;23.274;2024-02-14T03:26:11;16.30;;;14.52;;
42118;SDS011;27783;42.782;23.274;2024-02-14T03:28:36;20.33;;;15.32;;
42118;SDS011;27783;42.782;23.274;2024-02-14T03:31:02;19.50;;;14.95;;
42118;SDS011;27783;42.782;23.274;2024-02-14T03:33:27;25.65;;;19.17;;
42118;SDS011;27783;42.782;23.274;2024-02-14T03:35:54;35.08;;;22.70;;
42118;SDS011;27783;42.782;23.274;2024-02-14T03:38:29;16.70;;;15.00;;
42118;SDS011;27783;42.782;23.274;2024-02-14T03:40:56;15.18;;;12.57;;
42118;SDS011;27783;42.782;23.274;2024-02-14T03:43:21;16.23;;;14.43;;
42118;SDS011;27783;42.782;23.274;2024-02-14T03:45:48;15.93;;;13.25;;
42118;SDS011;27783;42.782;23.274;2024-02-14T03:48:14;19.25;;;14.50;;
42118;SDS011;27783;42.782;23.274;2024-02-14T03:50:40;16.17;;;13.90;;
42118;SDS011;27783;42.782;23.274;2024-02-14T03:53:05;17.85;;;15.13;;
42118;SDS011;27783;42.782;23.274;2024-02-14T03:55:31;17.98;;;14.32;;
42118;SDS011;27783;42.782;23.274;2024-02-14T03:57:56;20.33;;;15.20;;
42118;SDS011;27783;42.782;23.274;2024-02-14T04:00:22;17.05;;;15.20;;
42118;SDS011;27783;42.782;23.274;2024-02-14T04:02:47;15.68;;;13.95;;
42118;SDS011;27783;42.782;23.274;2024-02-14T04:05:14;21.60;;;15.30;;
42118;SDS011;27783;42.782;23.274;2024-02-14T04:07:39;17.27;;;15.45;;
42118;SDS011;27783;42.782;23.274;2024-02-14T04:10:05;19.35;;;14.90;;
42118;SDS011;27783;42.782;23.274;2024-02-14T04:12:31;21.45;;;16.60;;
42118;SDS011;27783;42.782;23.274;2024-02-14T04:14:57;20.80;;;16.23;;
42118;SDS011;27783;42.782;23.274;2024-02-14T04:17:22;19.88;;;17.75;;
42118;SDS011;27783;42.782;23.274;2024-02-14T04:19:49;21.97;;;16.27;;
42118;SDS011;27783;42.782;23.274;2024-02-14T04:22:15;26.80;;;19.25;;
42118;SDS011;27783;42.782;23.274;2024-02-14T04:24:40;31.15;;;21.23;;
42118;SDS011;27783;42.782;23.274;2024-02-14T04:27:05;27.27;;;21.60;;
42118;SDS011;27783;42.782;23.274;2024-02-14T04:29:31;31.63;;;22.58;;
42118;SDS011;27783;42.782;23.274;2024-02-14T04:31:58;29.57;;;22.23;;
42118;SDS011;27783;42.782;23.274;2024-02-14T04:34:25;30.05;;;22.65;;
42118;SDS011;27783;42.782;23.274;2024-02-14T04:36:50;26.10;;;20.00;;
42118;SDS011;27783;42.782;23.274;2024-02-14T04:39:16;28.58;;;20.55;;
42118;SDS011;27783;42.782;23.274;2024-02-14T04:41:42;33.17;;;22.95;;
42118;SDS011;27783;42.782;23.274;2024-02-14T04:44:07;34.70;;;24.92;;
42118;SDS011;27783;42.782;23.274;2024-02-14T04:46:33;27.02;;;21.55;;
42118;SDS011;27783;42.782;23.274;2024-02-14T04:49:00;33.73;;;23.50;;
42118;SDS011;27783;42.782;23.274;2024-02-14T04:51:28;30.23;;;21.92;;
42118;SDS011;27783;42.782;23.274;2024-02-14T04:53:54;37.47;;;24.27;;
42118;SDS011;27783;42.782;23.274;2024-02-14T04:56:23;87.68;;;57.22;;
42118;SDS011;27783;42.782;23.274;2024-02-14T04:58:49;30.35;;;22.65;;
42118;SDS011;27783;42.782;23.274;2024-02-14T05:01:14;36.83;;;26.95;;
42118;SDS011;27783;42.782;23.274;2024-02-14T05:03:40;21.40;;;17.77;;
42118;SDS011;27783;42.782;23.274;2024-02-14T05:06:06;27.90;;;20.73;;
42118;SDS011;27783;42.782;23.274;2024-02-14T05:08:31;27.75;;;20.88;;
42118;SDS011;27783;42.782;23.274;2024-02-14T05:10:57;26.02;;;20.40;;
42118;SDS011;27783;42.782;23.274;2024-02-14T05:13:22;25.83;;;20.20;;
42118;SDS011;27783;42.782;23.274;2024-02-14T05:15:48;27.00;;;20.63;;
42118;SDS011;27783;42.782;23.274;2024-02-14T05:18:16;23.13;;;18.83;;
42118;SDS011;27783;42.782;23.274;2024-02-14T05:20:41;21.42;;;17.98;;
42118;SDS011;27783;42.782;23.274;2024-02-14T05:23:07;21.98;;;17.25;;
42118;SDS011;27783;42.782;23.274;2024-02-14T05:25:33;24.73;;;19.45;;
42118;SDS011;27783;42.782;23.274;2024-02-14T05:28:01;24.17;;;19.67;;
42118;SDS011;27783;42.782;23.274;2024-02-14T05:30:27;25.92;;;21.13;;
42118;SDS011;27783;42.782;23.274;2024-02-14T05:32:52;25.00;;;20.35;;
42118;SDS011;27783;42.782;23.274;2024-02-14T05:35:19;23.13;;;17.60;;
42118;SDS011;27783;42.782;23.274;2024-02-14T05:37:45;22.33;;;17.52;;
42118;SDS011;27783;42.782;23.274;2024-02-14T05:40:14;25.08;;;20.00;;
42118;SDS011;27783;42.782;23.274;2024-02-14T05:42:40;27.35;;;19.73;;
42118;SDS011;27783;42.782;23.274;2024-02-14T05:45:05;24.75;;;17.67;;
42118;SDS011;27783;42.782;23.274;2024-02-14T05:47:31;23.33;;;18.27;;
42118;SDS011;27783;42.782;23.274;2024-02-14T05:49:56;25.02;;;18.33;;
42118;SDS011;27783;42.782;23.274;2024-02-14T05:52:22;24.50;;;19.88;;
42118;SDS011;27783;42.782;23.274;2024-02-14T05:54:47;25.50;;;19.95;;
42118;SDS011;27783;42.782;23.274;2024-02-14T05:57:14;18.95;;;16.73;;
42118;SDS011;27783;42.782;23.274;2024-02-14T05:59:39;20.05;;;17.02;;
42118;SDS011;27783;42.782;23.274;2024-02-14T06:02:05;20.10;;;16.50;;
42118;SDS011;27783;42.782;23.274;2024-02-14T06:04:33;20.00;;;17.65;;
42118;SDS011;27783;42.782;23.274;2024-02-14T06:06:58;21.55;;;17.60;;
42118;SDS011;27783;42.782;23.274;2024-02-14T06:09:24;20.45;;;17.25;;
42118;SDS011;27783;42.782;23.274;2024-02-14T06:11:50;21.63;;;16.65;;
42118;SDS011;27783;42.782;23.274;2024-02-14T06:14:15;22.30;;;18.30;;
42118;SDS011;27783;42.782;23.274;2024-02-14T06:16:42;19.42;;;16.00;;
42118;SDS011;27783;42.782;23.274;2024-02-14T06:19:09;21.00;;;17.10;;
42118;SDS011;27783;42.782;23.274;2024-02-14T06:21:35;19.73;;;17.07;;
42118;SDS011;27783;42.782;23.274;2024-02-14T06:24:01;25.30;;;19.67;;
42118;SDS011;27783;42.782;23.274;2024-02-14T06:28:54;18.10;;;15.88;;
42118;SDS011;27783;42.782;23.274;2024-02-14T06:31:20;18.88;;;15.07;;
42118;SDS011;27783;42.782;23.274;2024-02-14T06:33:47;20.80;;;16.80;;
42118;SDS011;27783;42.782;23.274;2024-02-14T06:36:13;20.90;;;17.50;;
42118;SDS011;27783;42.782;23.274;2024-02-14T06:38:39;20.20;;;16.63;;
42118;SDS011;27783;42.782;23.274;2024-02-14T06:41:05;23.50;;;18.98;;
42118;SDS011;27783;42.782;23.274;2024-02-14T06:43:31;17.13;;;15.43;;
42118;SDS011;27783;42.782;23.274;2024-02-14T06:45:56;21.52;;;16.50;;
42118;SDS011;27783;42.782;23.274;2024-02-14T06:48:22;17.42;;;15.35;;
42118;SDS011;27783;42.782;23.274;2024-02-14T06:50:49;22.23;;;17.27;;
42118;SDS011;27783;42.782;23.274;2024-02-14T06:53:15;16.70;;;14.80;;
42118;SDS011;27783;42.782;23.274;2024-02-14T06:55:40;16.55;;;14.85;;
42118;SDS011;27783;42.782;23.274;2024-02-14T06:58:06;18.50;;;15.77;;
42118;SDS011;27783;42.782;23.274;2024-02-14T07:00:31;16.95;;;15.10;;
42118;SDS011;27783;42.782;23.274;2024-02-14T07:02:57;18.00;;;14.88;;
42118;SDS011;27783;42.782;23.274;2024-02-14T07:05:22;18.25;;;14.18;;
42118;SDS011;27783;42.782;23.274;2024-02-14T07:07:50;15.75;;;14.20;;
42118;SDS011;27783;42.782;23.274;2024-02-14T07:10:15;16.00;;;14.38;;
42118;SDS011;27783;42.782;23.274;2024-02-14T07:12:41;16.90;;;15.18;;
42118;SDS011;27783;42.782;23.274;2024-02-14T07:15:06;13.50;;;12.10;;
42118;SDS011;27783;42.782;23.274;2024-02-14T07:17:33;17.42;;;14.57;;
42118;SDS011;27783;42.782;23.274;2024-02-14T07:19:58;15.50;;;13.52;;
42118;SDS011;27783;42.782;23.274;2024-02-14T07:22:24;14.80;;;12.50;;
42118;SDS011;27783;42.782;23.274;2024-02-14T07:24:50;18.00;;;13.30;;
42118;SDS011;27783;42.782;23.274;2024-02-14T07:27:15;11.63;;;10.27;;
42118;SDS011;27783;42.782;23.274;2024-02-14T07:29:44;13.85;;;12.50;;
42118;SDS011;27783;42.782;23.274;2024-02-14T07:32:09;14.05;;;12.60;;
42118;SDS011;27783;42.782;23.274;2024-02-14T07:34:37;13.45;;;11.90;;
42118;SDS011;27783;42.782;23.274;2024-02-14T07:37:04;12.45;;;11.15;;
42118;SDS011;27783;42.782;23.274;2024-02-14T07:39:29;13.45;;;12.15;;
42118;SDS011;27783;42.782;23.274;2024-02-14T07:41:55;14.18;;;11.68;;
42118;SDS011;27783;42.782;23.274;2024-02-14T07:44:22;14.38;;;12.57;;
42118;SDS011;27783;42.782;23.274;2024-02-14T07:46:48;13.48;;;12.18;;
42118;SDS011;27783;42.782;23.274;2024-02-14T07:49:14;14.40;;;12.15;;
42118;SDS011;27783;42.782;23.274;2024-02-14T07:51:39;15.50;;;12.43;;
42118;SDS011;27783;42.782;23.274;2024-02-14T07:54:05;15.13;;;11.38;;
42118;SDS011;27783;42.782;23.274;2024-02-14T07:56:31;14.23;;;12.82;;
42118;SDS011;27783;42.782;23.274;2024-02-14T07:58:57;14.10;;;11.45;;
42118;SDS011;27783;42.782;23.274;2024-02-14T08:01:23;13.38;;;12.07;;
42118;SDS011;27783;42.782;23.274;2024-02-14T08:03:48;14.18;;;11.48;;
42118;SDS011;27783;42.782;23.274;2024-02-14T08:06:14;13.77;;;12.38;;
42118;SDS011;27783;42.782;23.274;2024-02-14T08:08:40;12.55;;;11.25;;
42118;SDS011;27783;42.782;23.274;2024-02-14T08:11:05;17.75;;;14.02;;
42118;SDS011;27783;42.782;23.274;2024-02-14T08:13:31;13.90;;;12.55;;
42118;SDS011;27783;42.782;23.274;2024-02-14T08:15:57;17.20;;;12.27;;
42118;SDS011;27783;42.782;23.274;2024-02-14T08:18:23;21.35;;;14.90;;
42118;SDS011;27783;42.782;23.274;2024-02-14T08:20:49;12.23;;;10.82;;
42118;SDS011;27783;42.782;23.274;2024-02-14T08:23:15;13.02;;;11.02;;
42118;SDS011;27783;42.782;23.274;2024-02-14T08:25:42;19.60;;;11.65;;
42118;SDS011;27783;42.782;23.274;2024-02-14T08:28:09;18.25;;;12.20;;
42118;SDS011;27783;42.782;23.274;2024-02-14T08:33:02;10.40;;;9.30;;
42118;SDS011;27783;42.782;23.274;2024-02-14T08:35:28;14.90;;;9.80;;
42118;SDS011;27783;42.782;23.274;2024-02-14T08:37:54;11.95;;;9.30;;
42118;SDS011;27783;42.782;23.274;2024-02-14T08:40:20;11.15;;;9.65;;
42118;SDS011;27783;42.782;23.274;2024-02-14T08:42:45;12.40;;;10.75;;
42118;SDS011;27783;42.782;23.274;2024-02-14T08:45:11;11.65;;;10.65;;
42118;SDS011;27783;42.782;23.274;2024-02-14T08:47:36;12.32;;;10.23;;
42118;SDS011;27783;42.782;23.274;2024-02-14T08:50:05;13.52;;;9.70;;
42118;SDS011;27783;42.782;23.274;2024-02-14T08:52:31;12.10;;;10.82;;
42118;SDS011;27783;42.782;23.274;2024-02-14T08:54:57;14.85;;;10.30;;
42118;SDS011;27783;42.782;23.274;2024-02-14T08:57:23;10.13;;;9.13;;
42118;SDS011;27783;42.782;23.274;2024-02-14T08:59:48;12.10;;;10.50;;
42118;SDS011;27783;42.782;23.274;2024-02-14T09:02:14;12.15;;;9.82;;
42118;SDS011;27783;42.782;23.274;2024-02-14T09:04:41;15.02;;;10.50;;
42118;SDS011;27783;42.782;23.274;2024-02-14T09:07:07;10.70;;;9.60;;
42118;SDS011;27783;42.782;23.274;2024-02-14T09:09:33;12.43;;;10.30;;
42118;SDS011;27783;42.782;23.274;2024-02-14T09:11:59;13.90;;;12.52;;
42118;SDS011;27783;42.782;23.274;2024-02-14T09:14:31;24.48;;;16.15;;
42118;SDS011;27783;42.782;23.274;2024-02-14T09:16:57;14.93;;;11.90;;
42118;SDS011;27783;42.782;23.274;2024-02-14T09:19:23;12.75;;;10.40;;
42118;SDS011;27783;42.782;23.274;2024-02-14T09:21:50;11.50;;;10.30;;
42118;SDS011;27783;42.782;23.274;2024-02-14T09:24:15;9.82;;;8.82;;
42118;SDS011;27783;42.782;23.274;2024-02-14T09:26:41;10.95;;;9.80;;
42118;SDS011;27783;42.782;23.274;2024-02-14T09:29:08;12.40;;;9.67;;
42118;SDS011;27783;42.782;23.274;2024-02-14T09:31:35;16.48;;;10.38;;
42118;SDS011;27783;42.782;23.274;2024-02-14T09:34:01;10.68;;;9.57;;
42118;SDS011;27783;42.782;23.274;2024-02-14T09:36:26;12.40;;;10.05;;
42118;SDS011;27783;42.782;23.274;2024-02-14T09:38:52;12.05;;;10.25;;
42118;SDS011;27783;42.782;23.274;2024-02-14T09:41:22;15.48;;;10.15;;
42118;SDS011;27783;42.782;23.274;2024-02-14T09:43:55;11.52;;;10.43;;
42118;SDS011;27783;42.782;23.274;2024-02-14T09:46:21;13.63;;;9.60;;
42118;SDS011;27783;42.782;23.274;2024-02-14T09:48:52;15.68;;;12.95;;
42118;SDS011;27783;42.782;23.274;2024-02-14T09:51:18;18.35;;;15.07;;
42118;SDS011;27783;42.782;23.274;2024-02-14T09:53:44;14.18;;;11.77;;
42118;SDS011;27783;42.782;23.274;2024-02-14T09:58:42;12.23;;;9.98;;
42118;SDS011;27783;42.782;23.274;2024-02-14T10:01:28;16.67;;;12.63;;
42118;SDS011;27783;42.782;23.274;2024-02-14T10:03:54;13.43;;;11.90;;
42118;SDS011;27783;42.782;23.274;2024-02-14T10:06:20;19.77;;;14.52;;
42118;SDS011;27783;42.782;23.274;2024-02-14T10:08:47;13.55;;;12.15;;
42118;SDS011;27783;42.782;23.274;2024-02-14T10:11:17;13.23;;;11.00;;
42118;SDS011;27783;42.782;23.274;2024-02-14T10:13:46;15.30;;;11.90;;
42118;SDS011;27783;42.782;23.274;2024-02-14T10:16:16;16.35;;;13.20;;
42118;SDS011;27783;42.782;23.274;2024-02-14T10:18:44;17.60;;;13.68;;
42118;SDS011;27783;42.782;23.274;2024-02-14T10:21:15;14.82;;;12.68;;
42118;SDS011;27783;42.782;23.274;2024-02-14T10:23:44;11.40;;;10.25;;
42118;SDS011;27783;42.782;23.274;2024-02-14T10:26:15;11.48;;;10.35;;
42118;SDS011;27783;42.782;23.274;2024-02-14T10:28:41;10.30;;;9.20;;
42118;SDS011;27783;42.782;23.274;2024-02-14T10:31:07;10.13;;;9.15;;
42118;SDS011;27783;42.782;23.274;2024-02-14T10:33:35;18.02;;;12.73;;
42118;SDS011;27783;42.782;23.274;2024-02-14T10:36:00;11.63;;;10.52;;
42118;SDS011;27783;42.782;23.274;2024-02-14T10:38:29;10.73;;;9.60;;
42118;SDS011;27783;42.782;23.274;2024-02-14T10:40:59;10.57;;;9.60;;
42118;SDS011;27783;42.782;23.274;2024-02-14T10:43:26;13.53;;;10.83;;
42118;SDS011;27783;42.782;23.274;2024-02-14T10:45:55;16.55;;;14.68;;
42118;SDS011;27783;42.782;23.274;2024-02-14T10:48:23;11.65;;;10.55;;
42118;SDS011;27783;42.782;23.274;2024-02-14T10:50:55;11.82;;;10.77;;
42118;SDS011;27783;42.782;23.274;2024-02-14T10:53:23;11.57;;;10.38;;
42118;SDS011;27783;42.782;23.274;2024-02-14T10:58:16;12.05;;;10.85;;
42118;SDS011;27783;42.782;23.274;2024-02-14T11:00:43;12.75;;;11.55;;
42118;SDS011;27783;42.782;23.274;2024-02-14T11:03:09;13.13;;;10.05;;
42118;SDS011;27783;42.782;23.274;2024-02-14T11:05:45;15.23;;;12.52;;
42118;SDS011;27783;42.782;23.274;2024-02-14T11:08:22;14.30;;;11.32;;
42118;SDS011;27783;42.782;23.274;2024-02-14T11:10:54;13.07;;;10.02;;
42118;SDS011;27783;42.782;23.274;2024-02-14T11:13:25;12.70;;;11.50;;
42118;SDS011;27783;42.782;23.274;2024-02-14T11:15:53;11.77;;;9.85;;
42118;SDS011;27783;42.782;23.274;2024-02-14T11:18:29;12.07;;;10.13;;
42118;SDS011;27783;42.782;23.274;2024-02-14T11:20:55;12.95;;;11.60;;
42118;SDS011;27783;42.782;23.274;2024-02-14T11:23:25;10.43;;;9.43;;
42118;SDS011;27783;42.782;23.274;2024-02-14T11:26:01;10.15;;;9.13;;
42118;SDS011;27783;42.782;23.274;2024-02-14T11:28:29;10.75;;;9.65;;
42118;SDS011;27783;42.782;23.274;2024-02-14T11:30:58;12.13;;;10.80;;
42118;SDS011;27783;42.782;23.274;2024-02-14T11:33:26;12.10;;;10.93;;
42118;SDS011;27783;42.782;23.274;2024-02-14T11:35:52;11.70;;;10.55;;
42118;SDS011;27783;42.782;23.274;2024-02-14T11:38:22;12.75;;;11.13;;
42118;SDS011;27783;42.782;23.274;2024-02-14T11:40:51;14.70;;;13.15;;
42118;SDS011;27783;42.782;23.274;2024-02-14T11:43:19;12.70;;;11.13;;
42118;SDS011;27783;42.782;23.274;2024-02-14T11:45:46;11.73;;;10.35;;
42118;SDS011;27783;42.782;23.274;2024-02-14T11:48:14;20.58;;;12.93;;
42118;SDS011;27783;42.782;23.274;2024-02-14T11:50:42;21.75;;;14.13;;
42118;SDS011;27783;42.782;23.274;2024-02-14T11:53:08;22.55;;;14.30;;
42118;SDS011;27783;42.782;23.274;2024-02-14T11:55:36;32.50;;;18.80;;
42118;SDS011;27783;42.782;23.274;2024-02-14T11:58:09;14.20;;;10.52;;
42118;SDS011;27783;42.782;23.274;2024-02-14T12:00:44;9.98;;;8.88;;
42118;SDS011;27783;42.782;23.274;2024-02-14T12:03:18;11.68;;;9.13;;
42118;SDS011;27783;42.782;23.274;2024-02-14T12:05:45;12.45;;;11.25;;
42118;SDS011;27783;42.782;23.274;2024-02-14T12:08:12;13.93;;;11.88;;
42118;SDS011;27783;42.782;23.274;2024-02-14T12:10:42;13.25;;;10.73;;
42118;SDS011;27783;42.782;23.274;2024-02-14T12:13:09;12.52;;;11.23;;
42118;SDS011;27783;42.782;23.274;2024-02-14T12:15:40;14.63;;;11.40;;
42118;SDS011;27783;42.782;23.274;2024-02-14T12:18:07;13.65;;;11.05;;
42118;SDS011;27783;42.782;23.274;2024-02-14T12:20:33;13.20;;;10.85;;
42118;SDS011;27783;42.782;23.274;2024-02-14T12:23:00;16.23;;;11.00;;
42118;SDS011;27783;42.782;23.274;2024-02-14T12:25:26;12.68;;;9.93;;
42118;SDS011;27783;42.782;23.274;2024-02-14T12:27:52;18.27;;;11.02;;
42118;SDS011;27783;42.782;23.274;2024-02-14T12:30:18;18.40;;;10.77;;
42118;SDS011;27783;42.782;23.274;2024-02-14T12:32:45;11.45;;;10.13;;
42118;SDS011;27783;42.782;23.274;2024-02-14T12:35:11;11.80;;;10.02;;
42118;SDS011;27783;42.782;23.274;2024-02-14T12:37:36;9.32;;;8.20;;
42118;SDS011;27783;42.782;23.274;2024-02-14T12:40:04;9.73;;;8.73;;
42118;SDS011;27783;42.782;23.274;2024-02-14T12:42:30;13.40;;;11.05;;
42118;SDS011;27783;42.782;23.274;2024-02-14T12:44:57;11.40;;;9.68;;
42118;SDS011;27783;42.782;23.274;2024-02-14T12:47:23;9.50;;;8.05;;
42118;SDS011;27783;42.782;23.274;2024-02-14T12:49:49;8.60;;;7.53;;
42118;SDS011;27783;42.782;23.274;2024-02-14T12:52:14;10.88;;;7.70;;
42118;SDS011;27783;42.782;23.274;2024-02-14T12:54:40;8.70;;;7.85;;
42118;SDS011;27783;42.782;23.274;2024-02-14T12:57:05;9.85;;;8.63;;
42118;SDS011;27783;42.782;23.274;2024-02-14T12:59:31;10.30;;;8.32;;
42118;SDS011;27783;42.782;23.274;2024-02-14T13:01:57;8.70;;;7.88;;
42118;SDS011;27783;42.782;23.274;2024-02-14T13:04:22;10.77;;;8.65;;
42118;SDS011;27783;42.782;23.274;2024-02-14T13:06:47;9.50;;;8.50;;
42118;SDS011;27783;42.782;23.274;2024-02-14T13:09:13;11.82;;;9.05;;
42118;SDS011;27783;42.782;23.274;2024-02-14T13:11:40;12.18;;;10.98;;
42118;SDS011;27783;42.782;23.274;2024-02-14T13:16:34;11.75;;;10.55;;
42118;SDS011;27783;42.782;23.274;2024-02-14T13:19:00;17.27;;;13.40;;
42118;SDS011;27783;42.782;23.274;2024-02-14T13:21:26;18.35;;;13.38;;
42118;SDS011;27783;42.782;23.274;2024-02-14T13:23:51;12.88;;;11.15;;
42118;SDS011;27783;42.782;23.274;2024-02-14T13:26:17;15.27;;;12.55;;
42118;SDS011;27783;42.782;23.274;2024-02-14T13:28:42;20.00;;;13.18;;
42118;SDS011;27783;42.782;23.274;2024-02-14T13:31:08;21.25;;;14.23;;
42118;SDS011;27783;42.782;23.274;2024-02-14T13:33:35;16.45;;;12.35;;
42118;SDS011;27783;42.782;23.274;2024-02-14T13:36:00;11.32;;;9.27;;
42118;SDS011;27783;42.782;23.274;2024-02-14T13:38:26;13.30;;;10.32;;
42118;SDS011;27783;42.782;23.274;2024-02-14T13:40:51;12.63;;;10.10;;
42118;SDS011;27783;42.782;23.274;2024-02-14T13:43:17;13.73;;;10.75;;
42118;SDS011;27783;42.782;23.274;2024-02-14T13:45:43;21.13;;;10.05;;
42118;SDS011;27783;42.782;23.274;2024-02-14T13:48:09;12.60;;;10.50;;
42118;SDS011;27783;42.782;23.274;2024-02-14T13:50:36;11.15;;;9.43;;
42118;SDS011;27783;42.782;23.274;2024-02-14T13:53:03;12.13;;;10.73;;
42118;SDS011;27783;42.782;23.274;2024-02-14T13:55:29;15.57;;;10.77;;
42118;SDS011;27783;42.782;23.274;2024-02-14T13:57:54;13.50;;;10.45;;
42118;SDS011;27783;42.782;23.274;2024-02-14T14:00:20;9.43;;;7.97;;
42118;SDS011;27783;42.782;23.274;2024-02-14T14:02:45;14.30;;;9.80;;
42118;SDS011;27783;42.782;23.274;2024-02-14T14:05:11;25.38;;;16.58;;
42118;SDS011;27783;42.782;23.274;2024-02-14T14:07:40;28.92;;;18.30;;
42118;SDS011;27783;42.782;23.274;2024-02-14T14:10:06;17.52;;;12.15;;
42118;SDS011;27783;42.782;23.274;2024-02-14T14:12:33;14.52;;;11.63;;
42118;SDS011;27783;42.782;23.274;2024-02-14T14:14:58;17.98;;;13.13;;
42118;SDS011;27783;42.782;23.274;2024-02-14T14:17:24;22.52;;;16.77;;
42118;SDS011;27783;42.782;23.274;2024-02-14T14:19:50;25.58;;;18.83;;